Portada
METAR-TAF:

METAR-TAF

Aeroports :

Brasília, Districte Federal, Brasil

latitud: 15-52S, longitud: 047-56W, altitud: 1061 m

Observació

L'informe es va fer fa 17 minuts, a les 07:00 UTC
Vent 6 kt del Est
Temperatura 13°C
Humitat 67%
Pressió 1024 hPa
Visibilitat 10 km o més
sense núvols per sota de 1500 mi sense presència de cumulonimbus.

METAR: SBBR 200700Z 08006KT CAVOK 13/07 Q1024

Hora: 04:17 (07:17 UTC)

Pronòstic

L'informe es va fer fa 3 hores i 17 minuts, a les 04:00 UTC
Pronòstic vàlid del 20 a les 06 UTC al 21 a les 06 UTC
Vent 8 kt del Est/Sud-Est
Visibilitat 10 km o més
sense núvols per sota de 1500 mi sense presència de cumulonimbus.
Temporalment
l' 20 a les 12 UTC al 20 a les 18 UTC
Vent 12 kt del Est/Nord-Est
Evolucionant progressivament
l' 21 a les 00 UTC al 21 a les 02 UTC
Vent 3 kt del Est

TAF: SBBR 200400Z 2006/2106 11008KT CAVOK TN15/2009Z TX25/2017Z TEMPO 2012/2018 07012KT BECMG 2100/2102 09003KT RMK PFY

Observacions i pronòstics meteorològics de més de 4000 aeroports (METAR i TAF).

Les estacions disponibles són els punts grocs i vermells al mapa.

Posi el ratolí al punt desitjat per veure el nom de l'estació.

Feu clic per veure les observacions i els pronòstics meteorològics.

Per canviar el mapa: feu clic els botons verds amb una creu de color negre per apropar; al botó verd amb un guió per allunyar la imatge; o en les fletxes verdes per a mapes adjacents.


METAR-TAF: